Terminal Aerodrome Forecast
Issued by NWS Albuquerque, NM

Home | Current Version | Previous Version | Text Only | Print | Product List | Glossary On
Versions: 1 2 3 4 5 6 7 8 9 10 11 12 13
705
FTUS45 KABQ 270520
TAFABQ
TAF
KABQ 270520Z 2706/2806 15004KT P6SM SCT080
     FM271600 19008KT P6SM BKN060
     FM271900 23016G26KT P6SM BKN080
     FM280200 21011KT P6SM OVC070=

USA.gov is the U.S. government's official web portal to all federal, state and local government web resources and services.